Time;durP1;ratioP1;P1;durP2;ratioP2;P2;SDS_P1;SDS_P2;PMS_P1;PMS_P2;Temp;Humidity;BMP_temperature;BMP_pressure;BME280_temperature;BME280_humidity;BME280_pressure;Samples;Min_cycle;Max_cycle;Signal;HPM_P1;HPM_P2
2024/01/06 00:00:13;;;;;;;;;;;;;;;4.87;75.79;100901.50;7372105;19;19959;-65
2024/01/06 00:02:38;;;;;;;;;;;;;;;4.85;76.22;100900.63;7375447;19;19923;-65
2024/01/06 00:05:04;;;;;;;;;;;;;;;4.83;76.09;100900.63;7373842;19;19915;-65
2024/01/06 00:07:29;;;;;;;;;;;;;;;4.81;75.98;100894.56;7374081;19;19948;-65
2024/01/06 00:09:55;;;;;;;;;;;;;;;4.80;76.17;100902.31;7372586;19;19915;-66
2024/01/06 00:12:20;;;;;;;;;;;;;;;4.78;76.20;100901.47;7371527;19;20329;-65
2024/01/06 00:14:45;;;;;;;;;;;;;;;4.76;76.02;100895.41;7373979;19;20365;-65
2024/01/06 00:17:11;;;;;;;;;;;;;;;4.75;76.03;100902.28;7374689;19;19915;-65
2024/01/06 00:19:36;;;;;;;;;;;;;;;4.73;75.81;100901.44;7372706;19;20686;-65
2024/01/06 00:22:01;;;;;;;;;;;;;;;4.72;76.10;100899.72;7374275;19;19940;-65
2024/01/06 00:24:27;;;;;;;;;;;;;;;4.69;75.97;100905.72;7373351;19;19919;-65
2024/01/06 00:26:52;;;;;;;;;;;;;;;4.67;75.89;100911.75;7372491;19;20012;-65
2024/01/06 00:29:17;;;;;;;;;;;;;;;4.65;75.84;100911.72;7375204;19;19919;-65
2024/01/06 00:31:43;;;;;;;;;;;;;;;4.65;76.00;100913.47;7371260;19;20760;-66
2024/01/06 00:34:08;;;;;;;;;;;;;;;4.62;76.00;100918.63;7375627;19;19922;-64
2024/01/06 00:36:33;;;;;;;;;;;;;;;4.59;76.12;100924.63;7374094;19;19915;-66
2024/01/06 00:38:58;;;;;;;;;;;;;;;4.57;75.95;100928.09;7371969;19;19922;-65
2024/01/06 00:41:24;;;;;;;;;;;;;;;4.55;75.81;100932.38;7368427;19;20352;-66
2024/01/06 00:43:49;;;;;;;;;;;;;;;4.52;75.99;100938.41;7372216;19;19956;-67
2024/01/06 00:46:14;;;;;;;;;;;;;;;4.45;75.88;100930.59;7373846;19;19917;-65
2024/01/06 00:48:39;;;;;;;;;;;;;;;4.48;75.93;100934.06;7371270;19;19926;-65
2024/01/06 00:51:05;;;;;;;;;;;;;;;4.47;76.23;100942.69;7369600;19;21083;-65
2024/01/06 00:53:30;;;;;;;;;;;;;;;4.46;76.07;100942.66;7369553;19;19931;-65
2024/01/06 00:55:55;;;;;;;;;;;;;;;4.44;75.89;100945.25;7371326;19;20573;-65
2024/01/06 00:58:20;;;;;;;;;;;;;;;4.41;76.01;100940.94;7372171;19;19923;-65
2024/01/06 01:00:46;;;;;;;;;;;;;;;4.39;76.06;100941.75;7373624;19;19974;-66
2024/01/06 01:03:11;;;;;;;;;;;;;;;4.38;76.00;100940.91;7371985;19;19948;-65
2024/01/06 01:05:36;;;;;;;;;;;;;;;4.36;75.96;100946.94;7371929;19;20006;-66
2024/01/06 01:08:02;;;;;;;;;;;;;;;4.34;75.98;100949.47;7371545;19;19948;-64
2024/01/06 01:10:27;;;;;;;;;;;;;;;4.33;76.28;100947.75;7367776;19;19915;-66
2024/01/06 01:12:53;;;;;;;;;;;;;;;4.32;76.38;100951.22;7369248;19;19930;-66
2024/01/06 01:15:18;;;;;;;;;;;;;;;4.32;76.19;100961.56;7373318;19;19919;-65
2024/01/06 01:17:43;;;;;;;;;;;;;;;4.31;75.88;100962.41;7370535;19;20628;-66
2024/01/06 01:20:09;;;;;;;;;;;;;;;4.30;76.41;100965.81;7370752;19;19926;-66
2024/01/06 01:22:34;;;;;;;;;;;;;;;4.30;75.96;100976.16;7370498;19;19927;-66
2024/01/06 01:25:05;;;;;;;;;;;;;;;4.28;76.50;100974.44;7371136;19;19943;-66
2024/01/06 01:27:30;;;;;;;;;;;;;;;4.26;76.10;100971.84;7370675;19;19922;-65
2024/01/06 01:29:55;;;;;;;;;;;;;;;4.25;76.39;100974.41;7370447;19;19936;-66
2024/01/06 01:32:20;;;;;;;;;;;;;;;4.23;76.08;100971.81;7371357;19;19934;-65
2024/01/06 01:34:46;;;;;;;;;;;;;;;4.16;76.46;100964.88;7365249;19;19927;-66
2024/01/06 01:37:11;;;;;;;;;;;;;;;4.22;76.03;100983.00;7371864;19;20033;-65
2024/01/06 01:39:36;;;;;;;;;;;;;;;4.20;76.07;100976.94;7370761;19;20646;-64
2024/01/06 01:42:02;;;;;;;;;;;;;;;4.19;76.42;100980.41;7368985;19;19922;-65
2024/01/06 01:44:27;;;;;;;;;;;;;;;4.18;76.44;100976.09;7369192;19;20400;-66
2024/01/06 01:46:53;;;;;;;;;;;;;;;4.18;76.20;100981.25;7367244;19;19930;-65
2024/01/06 01:49:18;;;;;;;;;;;;;;;4.16;76.30;100982.97;7372070;19;19919;-65
2024/01/06 01:51:44;;;;;;;;;;;;;;;4.14;76.16;100980.34;7368508;19;20664;-65
2024/01/06 01:54:09;;;;;;;;;;;;;;;4.15;76.50;100983.81;7371711;19;19915;-66
2024/01/06 01:56:36;;;;;;;;;;;;;;;4.14;76.55;100987.25;7367141;19;20409;-65
2024/01/06 01:59:03;;;;;;;;;;;;;;;4.13;76.25;100990.69;7376921;19;19923;-65
2024/01/06 02:01:29;;;;;;;;;;;;;;;4.12;76.41;100994.13;7369097;19;19972;-65
2024/01/06 02:03:54;;;;;;;;;;;;;;;4.11;76.16;100998.44;7371345;19;19919;-65
2024/01/06 02:06:19;;;;;;;;;;;;;;;4.09;76.44;100999.25;7368555;19;19919;-65
2024/01/06 02:08:45;;;;;;;;;;;;;;;4.10;76.30;100998.41;7374701;19;19934;-64
2024/01/06 02:11:10;;;;;;;;;;;;;;;4.08;76.48;101002.72;7369567;19;19946;-65
2024/01/06 02:13:36;;;;;;;;;;;;;;;4.07;76.34;101006.16;7371893;19;19930;-64
2024/01/06 02:16:05;;;;;;;;;;;;;;;4.06;76.47;101005.28;7372914;19;19933;-65
2024/01/06 02:18:30;;;;;;;;;;;;;;;4.07;76.45;101016.50;7364358;19;20754;-65
2024/01/06 02:20:57;;;;;;;;;;;;;;;4.06;76.68;101019.94;7369521;19;19969;-64
2024/01/06 02:23:23;;;;;;;;;;;;;;;4.05;76.75;101019.03;7368441;19;19998;-65
2024/01/06 02:25:48;;;;;;;;;;;;;;;4.05;76.83;101023.34;7366480;19;20458;-66
2024/01/06 02:28:13;;;;;;;;;;;;;;;4.04;76.57;101026.78;7369431;19;19941;-66
2024/01/06 02:30:38;;;;;;;;;;;;;;;4.03;76.49;101028.50;7370801;19;19921;-66
2024/01/06 02:33:04;;;;;;;;;;;;;;;4.03;76.78;101040.56;7368356;19;19998;-65
2024/01/06 02:35:29;;;;;;;;;;;;;;;4.02;76.81;101038.84;7367429;19;20345;-65
2024/01/06 02:37:54;;;;;;;;;;;;;;;4.01;76.41;101050.03;7368180;19;19915;-66
2024/01/06 02:40:19;;;;;;;;;;;;;;;4.00;76.82;101056.88;7369036;19;19952;-65
2024/01/06 02:42:44;;;;;;;;;;;;;;;3.99;76.88;101059.47;7367425;19;19915;-65
2024/01/06 02:45:10;;;;;;;;;;;;;;;3.97;76.75;101061.19;7371567;19;20002;-64
2024/01/06 02:47:35;;;;;;;;;;;;;;;3.97;77.03;101061.19;7373158;19;19944;-65
2024/01/06 02:50:00;;;;;;;;;;;;;;;3.95;76.78;101068.91;7369767;19;19965;-65
2024/01/06 02:52:26;;;;;;;;;;;;;;;3.94;76.49;101063.72;7367397;19;20327;-65
2024/01/06 02:54:51;;;;;;;;;;;;;;;3.94;76.49;101076.63;7369612;19;19943;-66
2024/01/06 02:57:17;;;;;;;;;;;;;;;3.93;76.50;101075.78;7373895;19;19953;-65
2024/01/06 02:59:42;;;;;;;;;;;;;;;3.90;76.91;101070.56;7372105;19;20005;-65
2024/01/06 03:02:07;;;;;;;;;;;;;;;3.89;76.67;101074.88;7367842;19;19952;-65
2024/01/06 03:04:32;;;;;;;;;;;;;;;3.87;76.86;101074.00;7370320;19;19927;-65
2024/01/06 03:06:58;;;;;;;;;;;;;;;3.86;76.83;101080.03;7367443;19;20629;-65
2024/01/06 03:09:23;;;;;;;;;;;;;;;3.84;76.80;101079.13;7369332;19;19920;-65
2024/01/06 03:11:48;;;;;;;;;;;;;;;3.82;76.39;101074.81;7369253;19;19922;-65
2024/01/06 03:14:13;;;;;;;;;;;;;;;3.80;76.42;101077.38;7366281;19;19937;-66
2024/01/06 03:16:39;;;;;;;;;;;;;;;3.78;76.61;101076.47;7371430;19;19918;-65
2024/01/06 03:19:04;;;;;;;;;;;;;;;3.76;76.66;101073.03;7373582;19;19944;-65
2024/01/06 03:21:29;;;;;;;;;;;;;;;3.73;76.52;101083.31;7371715;19;19918;-66
2024/01/06 03:23:55;;;;;;;;;;;;;;;3.71;76.55;101082.44;7369201;19;19927;-65
2024/01/06 03:26:20;;;;;;;;;;;;;;;3.70;76.72;101084.97;7367718;19;19923;-64
2024/01/06 03:28:45;;;;;;;;;;;;;;;3.67;76.74;101078.09;7363992;19;19915;-65
2024/01/06 03:31:11;;;;;;;;;;;;;;;3.66;76.34;101081.53;7369029;19;19927;-65
2024/01/06 03:33:36;;;;;;;;;;;;;;;3.64;76.51;101080.63;7369768;19;20700;-65
2024/01/06 03:36:05;;;;;;;;;;;;;;;3.60;76.42;101082.31;7375691;19;19911;-66
2024/01/06 03:38:31;;;;;;;;;;;;;;;3.58;76.35;101081.41;7374822;19;19922;-66
2024/01/06 03:40:56;;;;;;;;;;;;;;;3.58;76.60;101083.13;7380609;19;19929;-66
2024/01/06 03:43:21;;;;;;;;;;;;;;;3.56;76.41;101084.84;7373627;19;19923;-65
2024/01/06 03:45:46;;;;;;;;;;;;;;;3.56;76.58;101084.84;7377396;19;19911;-65
2024/01/06 03:48:12;;;;;;;;;;;;;;;3.55;76.83;101089.13;7381627;19;19926;-65
2024/01/06 03:50:37;;;;;;;;;;;;;;;3.54;76.56;101084.78;7374325;19;20290;-65
2024/01/06 03:53:03;;;;;;;;;;;;;;;3.55;76.95;101083.97;7376284;19;19934;-65
2024/01/06 03:55:28;;;;;;;;;;;;;;;3.55;76.98;101093.44;7375673;19;19947;-64
2024/01/06 03:57:53;;;;;;;;;;;;;;;3.54;77.07;101089.09;7365987;19;20705;-66
2024/01/06 04:00:18;;;;;;;;;;;;;;;3.55;77.07;101085.69;7374307;19;19926;-64
2024/01/06 04:02:44;;;;;;;;;;;;;;;3.54;77.03;101087.38;7373570;19;20045;-66
2024/01/06 04:05:09;;;;;;;;;;;;;;;3.55;76.86;101093.44;7375054;19;19925;-66
2024/01/06 04:07:34;;;;;;;;;;;;;;;3.54;76.69;101092.53;7375394;19;19953;-66
2024/01/06 04:09:59;;;;;;;;;;;;;;;3.54;76.94;101096.84;7369273;19;19911;-66
2024/01/06 04:12:25;;;;;;;;;;;;;;;3.54;77.01;101102.00;7374144;19;20375;-65
2024/01/06 04:14:50;;;;;;;;;;;;;;;3.54;77.17;101107.16;7372093;19;20457;-65
2024/01/06 04:17:15;;;;;;;;;;;;;;;3.53;76.99;101110.59;7374871;19;19934;-66
2024/01/06 04:19:40;;;;;;;;;;;;;;;3.53;77.09;101105.44;7350475;19;19915;-65
2024/01/06 04:22:06;;;;;;;;;;;;;;;3.52;77.04;101108.88;7373858;19;19915;-65
2024/01/06 04:24:34;;;;;;;;;;;;;;;3.52;77.17;101114.03;7374348;19;19923;-65
2024/01/06 04:26:59;;;;;;;;;;;;;;;3.50;76.93;101105.44;7377389;19;20372;-65
2024/01/06 04:29:24;;;;;;;;;;;;;;;3.51;77.34;101115.75;7372849;19;20006;-66
2024/01/06 04:31:50;;;;;;;;;;;;;;;3.50;76.87;101115.75;7373332;19;19923;-65
2024/01/06 04:34:15;;;;;;;;;;;;;;;3.49;77.24;101119.16;7373396;19;19995;-65
2024/01/06 04:36:40;;;;;;;;;;;;;;;3.48;77.04;101122.59;7375689;19;20344;-65
2024/01/06 04:39:05;;;;;;;;;;;;;;;3.48;76.92;101128.63;7375442;19;19933;-65
2024/01/06 04:41:31;;;;;;;;;;;;;;;3.49;77.21;101134.66;7368622;19;19914;-65
2024/01/06 04:43:56;;;;;;;;;;;;;;;3.48;77.36;101135.50;7374522;19;19918;-65
2024/01/06 04:46:21;;;;;;;;;;;;;;;3.46;77.38;101139.78;7372451;19;19947;-65
2024/01/06 04:48:47;;;;;;;;;;;;;;;3.46;77.38;101139.78;7373336;19;20740;-66
2024/01/06 04:51:13;;;;;;;;;;;;;;;3.46;77.21;101144.97;7364735;19;19944;-65
2024/01/06 04:53:38;;;;;;;;;;;;;;;3.45;77.40;101146.66;7371784;19;19925;-64
2024/01/06 04:56:04;;;;;;;;;;;;;;;3.45;77.22;101144.09;7374553;19;20326;-66
2024/01/06 04:58:29;;;;;;;;;;;;;;;3.45;77.44;101145.78;7372133;19;20291;-65
2024/01/06 05:00:54;;;;;;;;;;;;;;;3.45;77.48;101158.69;7369341;19;19959;-65
2024/01/06 05:03:19;;;;;;;;;;;;;;;3.45;77.52;101145.78;7373005;19;20387;-65
2024/01/06 05:05:45;;;;;;;;;;;;;;;3.45;77.51;101158.69;7372361;19;19915;-65
2024/01/06 05:08:10;;;;;;;;;;;;;;;3.44;77.17;101162.97;7378785;19;19943;-66
2024/01/06 05:10:35;;;;;;;;;;;;;;;3.45;77.50;101163.84;7375948;19;19988;-65
2024/01/06 05:13:00;;;;;;;;;;;;;;;3.44;77.48;101164.69;7368655;19;19923;-65
2024/01/06 05:15:26;;;;;;;;;;;;;;;3.44;77.60;101165.56;7372999;19;20432;-65
2024/01/06 05:17:51;;;;;;;;;;;;;;;3.43;77.63;101165.56;7372294;19;19998;-65
2024/01/06 05:20:17;;;;;;;;;;;;;;;3.43;77.34;101175.88;7371793;19;19915;-65
2024/01/06 05:22:42;;;;;;;;;;;;;;;3.42;77.75;101169.84;7369582;19;19927;-66
2024/01/06 05:25:08;;;;;;;;;;;;;;;3.42;77.73;101171.56;7371869;19;19947;-64
2024/01/06 05:27:33;;;;;;;;;;;;;;;3.42;77.41;101174.16;7371890;19;20264;-66
2024/01/06 05:29:59;;;;;;;;;;;;;;;3.41;77.42;101175.00;7372143;19;19915;-65
2024/01/06 05:32:24;;;;;;;;;;;;;;;3.39;77.70;101175.81;7372202;19;20537;-65
2024/01/06 05:34:49;;;;;;;;;;;;;;;3.41;77.63;101187.91;7371899;19;19922;-65
2024/01/06 05:37:14;;;;;;;;;;;;;;;3.39;77.62;101185.28;7370458;19;19934;-66
2024/01/06 05:39:40;;;;;;;;;;;;;;;3.38;77.53;101189.59;7370028;19;20014;-65
2024/01/06 05:42:05;;;;;;;;;;;;;;;3.38;77.59;101187.00;7370911;19;20411;-65
2024/01/06 05:44:30;;;;;;;;;;;;;;;3.38;77.73;101188.72;7368625;19;19910;-65
2024/01/06 05:46:56;;;;;;;;;;;;;;;3.36;77.28;101196.44;7372830;19;19919;-66
2024/01/06 05:49:21;;;;;;;;;;;;;;;3.36;77.76;101191.28;7372281;19;20244;-66
2024/01/06 05:51:46;;;;;;;;;;;;;;;3.36;77.72;101196.44;7370198;19;19926;-65
2024/01/06 05:54:12;;;;;;;;;;;;;;;3.36;77.62;101195.59;7373341;19;19943;-66
2024/01/06 05:56:37;;;;;;;;;;;;;;;3.36;77.56;101195.59;7366811;19;19927;-65
2024/01/06 05:59:02;;;;;;;;;;;;;;;3.34;77.47;101203.28;7375509;19;19978;-65
2024/01/06 06:01:28;;;;;;;;;;;;;;;3.34;77.83;101203.28;7373303;19;19935;-66
2024/01/06 06:03:53;;;;;;;;;;;;;;;3.32;77.58;101199.81;7372792;19;19986;-64
2024/01/06 06:06:18;;;;;;;;;;;;;;;3.33;77.50;101209.31;7370737;19;19918;-65
2024/01/06 06:08:43;;;;;;;;;;;;;;;3.32;77.42;101215.31;7372464;19;20296;-66
2024/01/06 06:11:12;;;;;;;;;;;;;;;3.32;77.67;101212.72;7370134;19;19930;-65
2024/01/06 06:13:41;;;;;;;;;;;;;;;3.30;77.44;101218.72;7370645;19;19990;-66
2024/01/06 06:16:06;;;;;;;;;;;;;;;3.30;77.82;101216.16;7369411;19;19922;-66
2024/01/06 06:18:32;;;;;;;;;;;;;;;3.28;77.73;101223.84;7374165;19;19929;-65
2024/01/06 06:20:58;;;;;;;;;;;;;;;3.28;77.68;101228.16;7368436;19;19952;-65
2024/01/06 06:23:23;;;;;;;;;;;;;;;3.25;77.51;101223.81;7370188;19;20625;-66
2024/01/06 06:25:48;;;;;;;;;;;;;;;3.24;77.57;101237.53;7370200;19;19915;-65
2024/01/06 06:28:14;;;;;;;;;;;;;;;3.25;77.73;101235.88;7374851;19;19926;-65
2024/01/06 06:30:39;;;;;;;;;;;;;;;3.24;77.46;101242.72;7367510;19;20255;-65
2024/01/06 06:33:04;;;;;;;;;;;;;;;3.23;77.37;101247.84;7372256;19;20383;-65
2024/01/06 06:35:30;;;;;;;;;;;;;;;3.20;77.65;101246.09;7370182;19;19943;-65
2024/01/06 06:37:55;;;;;;;;;;;;;;;3.21;77.51;101257.28;7366191;19;20376;-66
2024/01/06 06:40:20;;;;;;;;;;;;;;;3.21;77.63;101257.28;7370618;19;19950;-65
2024/01/06 06:42:45;;;;;;;;;;;;;;;3.20;77.88;101255.56;7370305;19;20344;-65
2024/01/06 06:45:11;;;;;;;;;;;;;;;3.18;77.34;101268.41;7350737;19;20536;-65
2024/01/06 06:47:37;;;;;;;;;;;;;;;3.18;77.73;101263.25;7371084;19;19929;-65
2024/01/06 06:50:02;;;;;;;;;;;;;;;3.17;77.93;101269.28;7373757;19;19926;-65
2024/01/06 06:52:27;;;;;;;;;;;;;;;3.16;77.92;101275.28;7364986;19;19915;-66
2024/01/06 06:54:53;;;;;;;;;;;;;;;3.17;77.97;101281.31;7373297;19;19930;-66
2024/01/06 06:57:18;;;;;;;;;;;;;;;3.16;77.82;101285.59;7369689;19;19925;-66
2024/01/06 06:59:44;;;;;;;;;;;;;;;3.16;78.02;101290.75;7365345;19;19922;-66
2024/01/06 07:02:09;;;;;;;;;;;;;;;3.16;77.75;101295.94;7370980;19;19914;-65
2024/01/06 07:04:35;;;;;;;;;;;;;;;3.16;77.94;101300.22;7371080;19;19933;-65
2024/01/06 07:07:00;;;;;;;;;;;;;;;3.15;77.88;101304.53;7368823;19;19919;-66
2024/01/06 07:09:25;;;;;;;;;;;;;;;3.14;77.68;101307.91;7368382;19;19919;-65
2024/01/06 07:11:50;;;;;;;;;;;;;;;3.13;77.99;101308.75;7371651;19;19926;-66
2024/01/06 07:14:16;;;;;;;;;;;;;;;3.12;78.06;101314.78;7368062;19;19923;-66
2024/01/06 07:16:41;;;;;;;;;;;;;;;3.12;78.11;101319.94;7369242;19;19915;-65
2024/01/06 07:19:06;;;;;;;;;;;;;;;3.11;78.11;101323.38;7371302;19;19933;-66
2024/01/06 07:21:32;;;;;;;;;;;;;;;3.10;78.06;101327.66;7368433;19;19910;-66
2024/01/06 07:23:57;;;;;;;;;;;;;;;3.08;77.87;101324.16;7369981;19;19947;-65
2024/01/06 07:26:22;;;;;;;;;;;;;;;3.08;77.82;101334.47;7370860;19;21253;-65
2024/01/06 07:28:47;;;;;;;;;;;;;;;3.08;77.78;101344.81;7367065;19;19923;-65
2024/01/06 07:31:14;;;;;;;;;;;;;;;3.07;77.67;101342.22;7365711;19;19914;-66
2024/01/06 07:33:39;;;;;;;;;;;;;;;3.06;77.84;101343.06;7372404;19;19987;-65
2024/01/06 07:36:05;;;;;;;;;;;;;;;3.04;78.00;101353.34;7368568;19;19922;-66
2024/01/06 07:38:30;;;;;;;;;;;;;;;3.04;77.79;101358.53;7369931;19;20002;-66
2024/01/06 07:40:56;;;;;;;;;;;;;;;3.03;78.09;101355.88;7362304;19;19929;-64
2024/01/06 07:43:21;;;;;;;;;;;;;;;3.03;77.96;101366.22;7365976;19;19922;-65
2024/01/06 07:45:47;;;;;;;;;;;;;;;3.02;77.76;101361.91;7367520;19;19925;-66
2024/01/06 07:48:12;;;;;;;;;;;;;;;3.01;77.78;101357.59;7370554;19;20006;-67
2024/01/06 07:50:38;;;;;;;;;;;;;;;3.00;78.09;101367.03;7365920;19;19910;-66
2024/01/06 07:53:03;;;;;;;;;;;;;;;3.01;78.13;101367.91;7368012;19;20280;-66
2024/01/06 07:55:28;;;;;;;;;;;;;;;3.00;78.13;101367.03;7365905;19;19932;-65
2024/01/06 07:57:54;;;;;;;;;;;;;;;2.97;77.88;101364.38;7366804;19;19915;-66
2024/01/06 08:00:19;;;;;;;;;;;;;;;2.99;77.95;101372.16;7370071;19;19915;-66
2024/01/06 08:02:45;;;;;;;;;;;;;;;2.98;78.00;101376.44;7368652;19;19923;-65
2024/01/06 08:05:10;;;;;;;;;;;;;;;2.97;77.92;101377.28;7368023;19;19925;-66
2024/01/06 08:07:35;;;;;;;;;;;;;;;2.98;78.16;101383.31;7369655;19;19922;-66
2024/01/06 08:10:04;;;;;;;;;;;;;;;2.96;78.21;101380.72;7367835;19;19961;-65
2024/01/06 08:12:30;;;;;;;;;;;;;;;2.96;77.72;101383.28;7366609;19;19960;-65
2024/01/06 08:14:55;;;;;;;;;;;;;;;2.95;78.18;101389.28;7371026;19;19929;-65
2024/01/06 08:17:20;;;;;;;;;;;;;;;2.95;77.99;101391.00;7367907;19;19918;-66
2024/01/06 08:19:48;;;;;;;;;;;;;;;2.95;77.94;101398.75;7372913;19;19925;-65
2024/01/06 08:22:14;;;;;;;;;;;;;;;2.93;78.23;101405.56;7376715;19;19919;-65
2024/01/06 08:24:39;;;;;;;;;;;;;;;2.91;78.12;101402.97;7372258;19;19994;-66
2024/01/06 08:27:04;;;;;;;;;;;;;;;2.91;77.93;101413.28;7374280;19;19927;-65
2024/01/06 08:29:30;;;;;;;;;;;;;;;2.91;77.81;101417.59;7376298;19;19926;-65
2024/01/06 08:31:55;;;;;;;;;;;;;;;2.91;77.79;101427.91;7370807;19;20347;-66
2024/01/06 08:34:20;;;;;;;;;;;;;;;2.90;78.31;101426.16;7369598;19;19919;-65
2024/01/06 08:36:46;;;;;;;;;;;;;;;2.89;78.16;101424.41;7374140;19;19943;-66
2024/01/06 08:39:11;;;;;;;;;;;;;;;2.89;78.27;101430.47;7376120;19;20360;-65
2024/01/06 08:41:36;;;;;;;;;;;;;;;2.89;78.06;101440.78;7376715;19;19922;-65
2024/01/06 08:44:02;;;;;;;;;;;;;;;2.89;78.13;101445.03;7378395;19;19914;-65
2024/01/06 08:46:27;;;;;;;;;;;;;;;2.89;78.26;101445.03;7370139;19;19927;-65
2024/01/06 08:48:52;;;;;;;;;;;;;;;2.90;78.45;101457.13;7376909;19;20550;-66
2024/01/06 08:51:20;;;;;;;;;;;;;;;2.89;78.18;101455.34;7372784;19;19919;-66
2024/01/06 08:53:45;;;;;;;;;;;;;;;2.89;78.14;101460.50;7371951;19;19923;-65
2024/01/06 08:56:10;;;;;;;;;;;;;;;2.89;78.27;101461.41;7372781;19;19925;-65
2024/01/06 08:58:36;;;;;;;;;;;;;;;2.90;78.42;101465.72;7373142;19;19942;-65
2024/01/06 09:01:01;;;;;;;;;;;;;;;2.91;78.28;101474.34;7374040;19;19978;-65
2024/01/06 09:03:26;;;;;;;;;;;;;;;2.90;78.47;101467.44;7375520;19;20715;-65
2024/01/06 09:05:52;;;;;;;;;;;;;;;2.91;78.29;101471.75;7375602;19;20257;-66
2024/01/06 09:08:17;;;;;;;;;;;;;;;2.91;78.52;101479.50;7374562;19;19991;-65
2024/01/06 09:10:43;;;;;;;;;;;;;;;2.91;78.66;101476.91;7370916;19;20343;-65
2024/01/06 09:13:08;;;;;;;;;;;;;;;2.92;78.30;101476.94;7372624;19;19911;-65
2024/01/06 09:15:33;;;;;;;;;;;;;;;2.92;78.57;101481.22;7371763;19;20005;-66
2024/01/06 09:17:59;;;;;;;;;;;;;;;2.92;78.31;101489.84;7370149;19;20359;-66
2024/01/06 09:20:24;;;;;;;;;;;;;;;2.93;78.30;101491.56;7375981;19;20014;-66
2024/01/06 09:22:49;;;;;;;;;;;;;;;2.94;78.63;101489.84;7375159;19;19922;-66
2024/01/06 09:25:15;;;;;;;;;;;;;;;2.93;78.69;101489.00;7372934;19;19997;-65
2024/01/06 09:27:40;;;;;;;;;;;;;;;2.96;78.41;101495.94;7369412;19;19915;-66
2024/01/06 09:30:06;;;;;;;;;;;;;;;2.96;78.41;101503.69;7376312;19;19961;-65
2024/01/06 09:32:31;;;;;;;;;;;;;;;2.96;78.43;101507.13;7375921;19;20008;-66
2024/01/06 09:34:56;;;;;;;;;;;;;;;2.97;78.53;101510.56;7356770;19;19919;-65
2024/01/06 09:37:22;;;;;;;;;;;;;;;3.00;78.74;101513.22;7370921;19;19915;-65
2024/01/06 09:39:47;;;;;;;;;;;;;;;3.02;78.67;101515.00;7373780;19;19936;-65
2024/01/06 09:42:12;;;;;;;;;;;;;;;3.02;78.58;101516.69;7374223;19;19931;-65
2024/01/06 09:44:37;;;;;;;;;;;;;;;3.04;78.61;101515.00;7377539;19;19942;-66
2024/01/06 09:47:04;;;;;;;;;;;;;;;3.06;78.54;101524.53;7353010;19;19911;-66
2024/01/06 09:49:32;;;;;;;;;;;;;;;3.09;78.97;101526.31;7373695;19;19987;-66
2024/01/06 09:52:00;;;;;;;;;;;;;;;3.10;78.65;101520.31;7370591;19;19926;-65
2024/01/06 09:54:29;;;;;;;;;;;;;;;3.12;78.69;101521.22;7367974;19;20275;-65
2024/01/06 09:56:56;;;;;;;;;;;;;;;3.15;78.92;101536.78;7370321;19;19924;-65
2024/01/06 09:59:21;;;;;;;;;;;;;;;3.18;78.92;101536.81;7372098;19;19918;-65
2024/01/06 10:01:47;;;;;;;;;;;;;;;3.21;79.24;101542.06;7367948;19;20363;-65
2024/01/06 10:04:12;;;;;;;;;;;;;;;3.25;79.31;101538.72;7371414;19;20247;-65
2024/01/06 10:06:37;;;;;;;;;;;;;;;3.33;79.35;101537.13;7370663;19;19915;-65
2024/01/06 10:09:05;;;;;;;;;;;;;;;3.39;79.47;101542.41;7370921;19;19939;-66
2024/01/06 10:11:30;;;;;;;;;;;;;;;3.48;79.63;101548.63;7368742;19;20267;-66
2024/01/06 10:13:55;;;;;;;;;;;;;;;3.59;79.49;101547.09;7373942;19;19999;-65
2024/01/06 10:16:21;;;;;;;;;;;;;;;3.71;79.87;101544.78;7370019;19;19931;-66
2024/01/06 10:18:46;;;;;;;;;;;;;;;3.83;79.94;101550.16;7372844;19;20276;-66
2024/01/06 10:21:13;;;;;;;;;;;;;;;4.00;79.61;101550.44;7367300;19;19923;-66
2024/01/06 10:23:38;;;;;;;;;;;;;;;4.09;80.06;101536.84;7369785;19;19923;-66
2024/01/06 10:26:04;;;;;;;;;;;;;;;4.41;80.23;101551.19;7366161;19;19943;-67
2024/01/06 10:28:29;;;;;;;;;;;;;;;4.68;80.34;101560.22;7369015;19;19927;-66
2024/01/06 10:30:55;;;;;;;;;;;;;;;4.91;79.89;101555.34;7365097;19;20465;-66
2024/01/06 10:33:21;;;;;;;;;;;;;;;5.13;79.95;101546.19;7363818;19;20014;-66
2024/01/06 10:35:46;;;;;;;;;;;;;;;5.44;80.41;101561.25;7364669;19;19982;-67
2024/01/06 10:38:12;;;;;;;;;;;;;;;5.70;80.08;101561.53;7365697;19;19930;-65
2024/01/06 10:40:37;;;;;;;;;;;;;;;5.96;79.79;101561.84;7364938;19;19922;-66
2024/01/06 10:43:03;;;;;;;;;;;;;;;6.21;80.11;101562.09;7362472;19;20543;-65
2024/01/06 10:45:29;;;;;;;;;;;;;;;6.45;79.39;101562.31;7363866;19;19919;-66
2024/01/06 10:47:55;;;;;;;;;;;;;;;6.59;79.02;101548.53;7362041;19;19928;-66
2024/01/06 10:50:21;;;;;;;;;;;;;;;6.92;78.95;101569.53;7363892;19;19919;-67
2024/01/06 10:52:47;;;;;;;;;;;;;;;7.14;78.61;101574.84;7364734;19;20751;-66
2024/01/06 10:55:16;;;;;;;;;;;;;;;7.38;78.57;101584.50;7360123;19;19937;-66
2024/01/06 10:57:42;;;;;;;;;;;;;;;7.63;78.75;101590.69;7364976;19;19929;-67
2024/01/06 11:00:09;;;;;;;;;;;;;;;7.84;77.98;101590.75;7362599;19;20497;-66
2024/01/06 11:02:35;;;;;;;;;;;;;;;8.07;78.82;101583.88;7363896;19;19947;-67
2024/01/06 11:05:00;;;;;;;;;;;;;;;8.27;77.84;101588.25;7363161;19;19919;-66
2024/01/06 11:07:26;;;;;;;;;;;;;;;8.45;77.41;101585.66;7363600;19;20258;-66
2024/01/06 11:10:02;;;;;;;;;;;;;;;8.65;77.76;101583.06;7366422;19;19918;-66
2024/01/06 11:12:28;;;;;;;;;;;;;;;8.82;77.18;101585.66;7360191;19;20375;-66
2024/01/06 11:14:54;;;;;;;;;;;;;;;9.01;77.25;101582.13;7362530;19;19915;-66
2024/01/06 11:17:38;;;;;;;;;;;;;;;9.21;77.30;101587.28;7361349;19;19998;-66
2024/01/06 11:20:06;;;;;;;;;;;;;;;9.42;76.39;101588.97;7362132;19;19929;-66
2024/01/06 11:22:31;;;;;;;;;;;;;;;9.62;76.78;101591.50;7361742;19;19918;-66
2024/01/06 11:25:03;;;;;;;;;;;;;;;9.83;76.60;101587.91;7367285;19;19918;-66
2024/01/06 11:27:31;;;;;;;;;;;;;;;10.03;76.39;101583.44;7365128;19;20002;-67
2024/01/06 11:29:58;;;;;;;;;;;;;;;10.25;76.27;101591.19;7365004;19;19918;-67
2024/01/06 11:32:26;;;;;;;;;;;;;;;10.43;75.89;101585.81;7360778;19;19954;-67
2024/01/06 11:34:52;;;;;;;;;;;;;;;10.61;75.60;101588.28;7362024;19;19918;-66
2024/01/06 11:37:37;;;;;;;;;;;;;;;10.81;75.55;101590.72;7366581;19;19915;-66
2024/01/06 11:40:03;;;;;;;;;;;;;;;11.02;75.31;101596.59;7354585;19;19919;-67
2024/01/06 11:42:32;;;;;;;;;;;;;;;11.21;75.02;101585.06;7355122;19;19951;-66
2024/01/06 11:45:01;;;;;;;;;;;;;;;11.41;75.54;101587.47;7354904;19;19931;-67
2024/01/06 11:47:28;;;;;;;;;;;;;;;11.37;74.96;101543.91;7366606;19;20717;-67
2024/01/06 11:49:54;;;;;;;;;;;;;;;11.79;75.17;101589.56;7362758;19;19966;-66
2024/01/06 11:52:19;;;;;;;;;;;;;;;11.94;74.50;101588.53;7364713;19;20349;-66
2024/01/06 11:54:45;;;;;;;;;;;;;;;12.12;74.19;101590.91;7362233;19;19923;-67
2024/01/06 11:57:10;;;;;;;;;;;;;;;12.30;74.12;101583.63;7377939;19;20476;-68
2024/01/06 11:59:35;;;;;;;;;;;;;;;12.48;74.25;101596.44;7377000;19;19914;-67
2024/01/06 12:02:00;;;;;;;;;;;;;;;12.66;74.14;101601.38;7369987;19;20381;-67
2024/01/06 12:04:27;;;;;;;;;;;;;;;12.84;74.30;101604.59;7373439;19;20564;-66
2024/01/06 12:06:52;;;;;;;;;;;;;;;13.02;73.87;101606.00;7373592;19;19929;-67
2024/01/06 12:09:19;;;;;;;;;;;;;;;13.17;73.57;101608.31;7376435;19;19911;-67
2024/01/06 12:11:46;;;;;;;;;;;;;;;13.34;73.31;101602.81;7371038;19;19939;-66
2024/01/06 12:14:11;;;;;;;;;;;;;;;13.52;73.27;101598.94;7372874;19;19921;-66
2024/01/06 12:16:37;;;;;;;;;;;;;;;13.68;72.99;101601.19;7372467;19;19978;-67
2024/01/06 12:19:03;;;;;;;;;;;;;;;13.85;73.15;101603.50;7369516;19;19947;-67
2024/01/06 12:21:29;;;;;;;;;;;;;;;14.01;72.76;101598.75;7368394;19;19922;-67
2024/01/06 12:23:54;;;;;;;;;;;;;;;14.17;72.67;101594.88;7374110;19;19940;-67
2024/01/06 12:26:20;;;;;;;;;;;;;;;14.35;72.86;101606.72;7371856;19;19923;-67
2024/01/06 12:28:45;;;;;;;;;;;;;;;14.50;72.40;101606.38;7373471;19;19988;-67
2024/01/06 12:31:12;;;;;;;;;;;;;;;14.64;72.26;101595.50;7372322;19;20360;-67
2024/01/06 12:33:38;;;;;;;;;;;;;;;14.75;72.09;101598.75;7373622;19;19915;-66
2024/01/06 12:36:04;;;;;;;;;;;;;;;14.88;71.87;101599.28;7372041;19;20688;-67